Union, West Virginia
Current Conditions -  °F | °C
As of 3:15 PM on Monday 22 Dec 2014 (Local Time) from KLWB Reporting Station
Overcast Overcast  
Wind Chill: 34°   Ceiling: 800
Heat Index: 38°   Visibility: 7mi
Dew Point: 34°   Wind: 5mph
Humidity: 87%   Direction: 100°E
Pressure: 30.02"   Gusts: NA
Location:  37.59°N, 80.54°W
Report Text: KLWB 222015Z AUTO 10004KT 7SM OVC008 03/01 A3002 RMK AO2 T00310012
Loading
Personal Weather Stations






























Interactive Weather Map New forecast layout! Learn more

10-Day Weather Forecast

Advertisements
Track Severe Weather on mobile